sensor_id;sensor_type;location;lat;lon;timestamp;P1;durP1;ratioP1;P2;durP2;ratioP2
15806;SDS011;8005;51.368;6.140;2023-04-25T00:01:28;11.30;;;4.88;;
15806;SDS011;8005;51.368;6.140;2023-04-25T00:03:00;10.37;;;4.47;;
15806;SDS011;8005;51.368;6.140;2023-04-25T00:04:33;16.63;;;5.38;;
15806;SDS011;8005;51.368;6.140;2023-04-25T00:06:06;17.33;;;4.53;;
15806;SDS011;8005;51.368;6.140;2023-04-25T00:07:38;17.38;;;5.40;;
15806;SDS011;8005;51.368;6.140;2023-04-25T00:09:10;18.10;;;4.90;;
15806;SDS011;8005;51.368;6.140;2023-04-25T00:10:42;18.23;;;5.32;;
15806;SDS011;8005;51.368;6.140;2023-04-25T00:12:14;20.60;;;5.90;;
15806;SDS011;8005;51.368;6.140;2023-04-25T00:13:47;14.27;;;4.88;;
15806;SDS011;8005;51.368;6.140;2023-04-25T00:15:21;18.15;;;7.32;;
15806;SDS011;8005;51.368;6.140;2023-04-25T00:16:53;15.18;;;5.07;;
15806;SDS011;8005;51.368;6.140;2023-04-25T00:18:25;13.52;;;5.35;;
15806;SDS011;8005;51.368;6.140;2023-04-25T00:20:00;15.38;;;5.35;;
15806;SDS011;8005;51.368;6.140;2023-04-25T00:21:36;18.08;;;6.50;;
15806;SDS011;8005;51.368;6.140;2023-04-25T00:23:12;17.48;;;5.90;;
15806;SDS011;8005;51.368;6.140;2023-04-25T00:24:49;20.02;;;5.03;;
15806;SDS011;8005;51.368;6.140;2023-04-25T00:26:21;12.77;;;5.38;;
15806;SDS011;8005;51.368;6.140;2023-04-25T00:27:53;17.33;;;5.88;;
15806;SDS011;8005;51.368;6.140;2023-04-25T00:29:25;15.70;;;5.38;;
15806;SDS011;8005;51.368;6.140;2023-04-25T00:30:57;14.48;;;5.70;;
15806;SDS011;8005;51.368;6.140;2023-04-25T00:32:29;15.75;;;5.18;;
15806;SDS011;8005;51.368;6.140;2023-04-25T00:34:01;22.90;;;6.28;;
15806;SDS011;8005;51.368;6.140;2023-04-25T00:35:33;10.63;;;5.07;;
15806;SDS011;8005;51.368;6.140;2023-04-25T00:37:05;19.17;;;4.88;;
15806;SDS011;8005;51.368;6.140;2023-04-25T00:38:37;15.68;;;5.53;;
15806;SDS011;8005;51.368;6.140;2023-04-25T00:40:10;14.70;;;5.80;;
15806;SDS011;8005;51.368;6.140;2023-04-25T00:41:42;14.45;;;4.75;;
15806;SDS011;8005;51.368;6.140;2023-04-25T00:43:14;19.65;;;6.28;;
15806;SDS011;8005;51.368;6.140;2023-04-25T00:44:46;16.83;;;5.43;;
15806;SDS011;8005;51.368;6.140;2023-04-25T00:46:19;17.52;;;6.25;;
15806;SDS011;8005;51.368;6.140;2023-04-25T00:47:51;17.42;;;5.38;;
15806;SDS011;8005;51.368;6.140;2023-04-25T00:49:23;14.30;;;6.00;;
15806;SDS011;8005;51.368;6.140;2023-04-25T00:50:56;19.02;;;6.40;;
15806;SDS011;8005;51.368;6.140;2023-04-25T00:52:29;17.00;;;6.07;;
15806;SDS011;8005;51.368;6.140;2023-04-25T00:54:01;19.15;;;6.45;;
15806;SDS011;8005;51.368;6.140;2023-04-25T00:55:33;17.67;;;6.55;;
15806;SDS011;8005;51.368;6.140;2023-04-25T00:57:07;18.15;;;7.22;;
15806;SDS011;8005;51.368;6.140;2023-04-25T00:58:40;18.25;;;6.03;;
15806;SDS011;8005;51.368;6.140;2023-04-25T01:00:12;14.82;;;5.97;;
15806;SDS011;8005;51.368;6.140;2023-04-25T01:01:47;19.52;;;6.40;;
15806;SDS011;8005;51.368;6.140;2023-04-25T01:03:19;17.67;;;5.45;;
15806;SDS011;8005;51.368;6.140;2023-04-25T01:04:51;15.13;;;5.30;;
15806;SDS011;8005;51.368;6.140;2023-04-25T01:06:24;18.95;;;5.95;;
15806;SDS011;8005;51.368;6.140;2023-04-25T01:07:56;14.63;;;5.13;;
15806;SDS011;8005;51.368;6.140;2023-04-25T01:09:30;17.15;;;5.05;;
15806;SDS011;8005;51.368;6.140;2023-04-25T01:11:03;14.77;;;4.85;;
15806;SDS011;8005;51.368;6.140;2023-04-25T01:12:36;15.02;;;5.53;;
15806;SDS011;8005;51.368;6.140;2023-04-25T01:14:07;19.17;;;5.85;;
15806;SDS011;8005;51.368;6.140;2023-04-25T01:15:39;15.23;;;4.97;;
15806;SDS011;8005;51.368;6.140;2023-04-25T01:17:11;15.00;;;5.03;;
15806;SDS011;8005;51.368;6.140;2023-04-25T01:18:45;11.68;;;5.05;;
15806;SDS011;8005;51.368;6.140;2023-04-25T01:20:17;11.50;;;4.80;;
15806;SDS011;8005;51.368;6.140;2023-04-25T01:21:50;16.00;;;7.13;;
15806;SDS011;8005;51.368;6.140;2023-04-25T01:23:22;16.05;;;6.13;;
15806;SDS011;8005;51.368;6.140;2023-04-25T01:24:55;17.52;;;5.43;;
15806;SDS011;8005;51.368;6.140;2023-04-25T01:26:27;16.33;;;6.17;;
15806;SDS011;8005;51.368;6.140;2023-04-25T01:27:59;18.98;;;7.28;;
15806;SDS011;8005;51.368;6.140;2023-04-25T01:31:04;19.08;;;6.15;;
15806;SDS011;8005;51.368;6.140;2023-04-25T01:32:37;18.08;;;6.55;;
15806;SDS011;8005;51.368;6.140;2023-04-25T01:34:12;16.25;;;5.63;;
15806;SDS011;8005;51.368;6.140;2023-04-25T01:35:44;13.45;;;5.47;;
15806;SDS011;8005;51.368;6.140;2023-04-25T01:37:16;14.48;;;5.75;;
15806;SDS011;8005;51.368;6.140;2023-04-25T01:38:49;14.68;;;6.00;;
15806;SDS011;8005;51.368;6.140;2023-04-25T01:40:21;17.63;;;7.93;;
15806;SDS011;8005;51.368;6.140;2023-04-25T01:41:54;14.73;;;5.97;;
15806;SDS011;8005;51.368;6.140;2023-04-25T01:43:28;23.02;;;6.05;;
15806;SDS011;8005;51.368;6.140;2023-04-25T01:44:59;15.90;;;5.10;;
15806;SDS011;8005;51.368;6.140;2023-04-25T01:46:32;17.35;;;6.43;;
15806;SDS011;8005;51.368;6.140;2023-04-25T01:48:05;15.95;;;5.28;;
15806;SDS011;8005;51.368;6.140;2023-04-25T01:49:37;20.27;;;5.97;;
15806;SDS011;8005;51.368;6.140;2023-04-25T01:51:09;21.60;;;5.80;;
15806;SDS011;8005;51.368;6.140;2023-04-25T01:52:43;16.25;;;6.13;;
15806;SDS011;8005;51.368;6.140;2023-04-25T01:54:16;14.50;;;5.75;;
15806;SDS011;8005;51.368;6.140;2023-04-25T01:55:50;22.08;;;7.40;;
15806;SDS011;8005;51.368;6.140;2023-04-25T01:57:25;20.88;;;5.78;;
15806;SDS011;8005;51.368;6.140;2023-04-25T01:58:57;18.55;;;6.22;;
15806;SDS011;8005;51.368;6.140;2023-04-25T02:00:45;16.65;;;5.80;;
15806;SDS011;8005;51.368;6.140;2023-04-25T02:02:18;12.43;;;5.18;;
15806;SDS011;8005;51.368;6.140;2023-04-25T02:03:50;13.63;;;5.10;;
15806;SDS011;8005;51.368;6.140;2023-04-25T02:05:33;15.57;;;4.55;;
15806;SDS011;8005;51.368;6.140;2023-04-25T02:07:06;14.60;;;5.60;;
15806;SDS011;8005;51.368;6.140;2023-04-25T02:08:56;12.98;;;6.22;;
15806;SDS011;8005;51.368;6.140;2023-04-25T02:10:28;17.55;;;5.40;;
15806;SDS011;8005;51.368;6.140;2023-04-25T02:12:18;18.10;;;7.15;;
15806;SDS011;8005;51.368;6.140;2023-04-25T02:14:09;15.82;;;5.80;;
15806;SDS011;8005;51.368;6.140;2023-04-25T02:15:47;12.32;;;5.28;;
15806;SDS011;8005;51.368;6.140;2023-04-25T02:17:21;22.35;;;6.20;;
15806;SDS011;8005;51.368;6.140;2023-04-25T02:18:54;15.48;;;5.47;;
15806;SDS011;8005;51.368;6.140;2023-04-25T02:20:27;13.32;;;5.57;;
15806;SDS011;8005;51.368;6.140;2023-04-25T02:22:00;11.50;;;5.95;;
15806;SDS011;8005;51.368;6.140;2023-04-25T02:23:32;17.95;;;5.70;;
15806;SDS011;8005;51.368;6.140;2023-04-25T02:25:04;11.32;;;5.05;;
15806;SDS011;8005;51.368;6.140;2023-04-25T02:26:36;15.98;;;6.50;;
15806;SDS011;8005;51.368;6.140;2023-04-25T02:28:11;20.55;;;6.13;;
15806;SDS011;8005;51.368;6.140;2023-04-25T02:29:43;15.07;;;5.43;;
15806;SDS011;8005;51.368;6.140;2023-04-25T02:31:15;15.30;;;6.18;;
15806;SDS011;8005;51.368;6.140;2023-04-25T02:32:47;19.65;;;5.95;;
15806;SDS011;8005;51.368;6.140;2023-04-25T02:34:19;13.93;;;6.82;;
15806;SDS011;8005;51.368;6.140;2023-04-25T02:35:51;14.30;;;7.65;;
15806;SDS011;8005;51.368;6.140;2023-04-25T02:37:25;17.75;;;8.35;;
15806;SDS011;8005;51.368;6.140;2023-04-25T02:38:57;18.88;;;7.47;;
15806;SDS011;8005;51.368;6.140;2023-04-25T02:40:30;20.23;;;7.60;;
15806;SDS011;8005;51.368;6.140;2023-04-25T02:42:01;22.15;;;8.18;;
15806;SDS011;8005;51.368;6.140;2023-04-25T02:43:34;21.98;;;7.50;;
15806;SDS011;8005;51.368;6.140;2023-04-25T02:45:06;18.30;;;7.90;;
15806;SDS011;8005;51.368;6.140;2023-04-25T02:46:38;20.60;;;8.07;;
15806;SDS011;8005;51.368;6.140;2023-04-25T02:48:10;20.13;;;7.33;;
15806;SDS011;8005;51.368;6.140;2023-04-25T02:49:42;20.77;;;7.97;;
15806;SDS011;8005;51.368;6.140;2023-04-25T02:51:14;21.33;;;9.07;;
15806;SDS011;8005;51.368;6.140;2023-04-25T02:52:48;26.90;;;9.30;;
15806;SDS011;8005;51.368;6.140;2023-04-25T02:54:24;16.75;;;7.85;;
15806;SDS011;8005;51.368;6.140;2023-04-25T02:55:56;23.50;;;8.83;;
15806;SDS011;8005;51.368;6.140;2023-04-25T02:57:29;19.30;;;7.95;;
15806;SDS011;8005;51.368;6.140;2023-04-25T02:59:01;25.45;;;8.45;;
15806;SDS011;8005;51.368;6.140;2023-04-25T03:00:35;23.75;;;8.57;;
15806;SDS011;8005;51.368;6.140;2023-04-25T03:02:07;22.33;;;10.30;;
15806;SDS011;8005;51.368;6.140;2023-04-25T03:03:39;34.72;;;10.93;;
15806;SDS011;8005;51.368;6.140;2023-04-25T03:05:11;21.70;;;7.55;;
15806;SDS011;8005;51.368;6.140;2023-04-25T03:06:43;20.67;;;8.43;;
15806;SDS011;8005;51.368;6.140;2023-04-25T03:08:15;27.17;;;8.63;;
15806;SDS011;8005;51.368;6.140;2023-04-25T03:09:47;22.10;;;8.43;;
15806;SDS011;8005;51.368;6.140;2023-04-25T03:11:19;18.25;;;7.28;;
15806;SDS011;8005;51.368;6.140;2023-04-25T03:12:52;23.88;;;7.60;;
15806;SDS011;8005;51.368;6.140;2023-04-25T03:14:24;22.33;;;7.93;;
15806;SDS011;8005;51.368;6.140;2023-04-25T03:15:56;15.73;;;7.38;;
15806;SDS011;8005;51.368;6.140;2023-04-25T03:17:28;21.38;;;8.43;;
15806;SDS011;8005;51.368;6.140;2023-04-25T03:19:00;22.10;;;8.38;;
15806;SDS011;8005;51.368;6.140;2023-04-25T03:20:32;20.58;;;7.50;;
15806;SDS011;8005;51.368;6.140;2023-04-25T03:22:03;18.17;;;7.00;;
15806;SDS011;8005;51.368;6.140;2023-04-25T03:23:35;21.30;;;7.22;;
15806;SDS011;8005;51.368;6.140;2023-04-25T03:25:07;18.63;;;6.80;;
15806;SDS011;8005;51.368;6.140;2023-04-25T03:26:40;22.13;;;8.23;;
15806;SDS011;8005;51.368;6.140;2023-04-25T03:28:12;17.05;;;7.53;;
15806;SDS011;8005;51.368;6.140;2023-04-25T03:29:44;18.07;;;6.37;;
15806;SDS011;8005;51.368;6.140;2023-04-25T03:31:16;15.90;;;6.68;;
15806;SDS011;8005;51.368;6.140;2023-04-25T03:32:48;26.27;;;7.32;;
15806;SDS011;8005;51.368;6.140;2023-04-25T03:34:21;22.40;;;6.75;;
15806;SDS011;8005;51.368;6.140;2023-04-25T03:35:53;16.20;;;6.30;;
15806;SDS011;8005;51.368;6.140;2023-04-25T03:37:25;16.50;;;5.93;;
15806;SDS011;8005;51.368;6.140;2023-04-25T03:38:57;22.08;;;7.13;;
15806;SDS011;8005;51.368;6.140;2023-04-25T03:42:22;19.45;;;6.68;;
15806;SDS011;8005;51.368;6.140;2023-04-25T03:43:55;22.77;;;6.28;;
15806;SDS011;8005;51.368;6.140;2023-04-25T03:45:27;18.35;;;6.20;;
15806;SDS011;8005;51.368;6.140;2023-04-25T03:46:59;16.57;;;6.30;;
15806;SDS011;8005;51.368;6.140;2023-04-25T03:48:31;18.63;;;7.70;;
15806;SDS011;8005;51.368;6.140;2023-04-25T03:50:03;19.97;;;5.97;;
15806;SDS011;8005;51.368;6.140;2023-04-25T03:51:35;24.95;;;7.40;;
15806;SDS011;8005;51.368;6.140;2023-04-25T03:53:07;20.45;;;6.80;;
15806;SDS011;8005;51.368;6.140;2023-04-25T03:54:59;17.27;;;6.03;;
15806;SDS011;8005;51.368;6.140;2023-04-25T03:56:32;19.27;;;6.60;;
15806;SDS011;8005;51.368;6.140;2023-04-25T03:58:17;25.13;;;6.57;;
15806;SDS011;8005;51.368;6.140;2023-04-25T03:59:49;17.17;;;7.15;;
15806;SDS011;8005;51.368;6.140;2023-04-25T04:01:22;18.30;;;6.85;;
15806;SDS011;8005;51.368;6.140;2023-04-25T04:02:54;29.85;;;8.20;;
15806;SDS011;8005;51.368;6.140;2023-04-25T04:04:26;19.83;;;6.07;;
15806;SDS011;8005;51.368;6.140;2023-04-25T04:05:58;20.45;;;5.93;;
15806;SDS011;8005;51.368;6.140;2023-04-25T04:07:30;19.47;;;6.20;;
15806;SDS011;8005;51.368;6.140;2023-04-25T04:09:06;22.17;;;6.65;;
15806;SDS011;8005;51.368;6.140;2023-04-25T04:10:42;19.88;;;6.55;;
15806;SDS011;8005;51.368;6.140;2023-04-25T04:12:15;13.73;;;6.63;;
15806;SDS011;8005;51.368;6.140;2023-04-25T04:13:47;22.83;;;7.85;;
15806;SDS011;8005;51.368;6.140;2023-04-25T04:15:20;21.48;;;6.55;;
15806;SDS011;8005;51.368;6.140;2023-04-25T04:16:52;20.33;;;5.82;;
15806;SDS011;8005;51.368;6.140;2023-04-25T04:18:25;18.80;;;7.03;;
15806;SDS011;8005;51.368;6.140;2023-04-25T04:19:59;20.88;;;6.70;;
15806;SDS011;8005;51.368;6.140;2023-04-25T04:21:34;20.85;;;5.80;;
15806;SDS011;8005;51.368;6.140;2023-04-25T04:23:07;19.83;;;6.47;;
15806;SDS011;8005;51.368;6.140;2023-04-25T04:24:39;18.50;;;6.85;;
15806;SDS011;8005;51.368;6.140;2023-04-25T04:26:12;21.60;;;6.68;;
15806;SDS011;8005;51.368;6.140;2023-04-25T04:28:01;17.80;;;6.45;;
15806;SDS011;8005;51.368;6.140;2023-04-25T04:29:44;23.20;;;7.10;;
15806;SDS011;8005;51.368;6.140;2023-04-25T04:31:33;19.40;;;7.05;;
15806;SDS011;8005;51.368;6.140;2023-04-25T04:33:06;18.33;;;6.50;;
15806;SDS011;8005;51.368;6.140;2023-04-25T04:34:39;29.00;;;6.63;;
15806;SDS011;8005;51.368;6.140;2023-04-25T04:36:13;20.80;;;6.80;;
15806;SDS011;8005;51.368;6.140;2023-04-25T04:37:45;14.83;;;6.50;;
15806;SDS011;8005;51.368;6.140;2023-04-25T04:41:05;26.17;;;7.47;;
15806;SDS011;8005;51.368;6.140;2023-04-25T04:42:52;20.50;;;7.05;;
15806;SDS011;8005;51.368;6.140;2023-04-25T04:44:35;18.50;;;7.47;;
15806;SDS011;8005;51.368;6.140;2023-04-25T04:46:28;17.05;;;6.43;;
15806;SDS011;8005;51.368;6.140;2023-04-25T04:48:18;16.73;;;5.93;;
15806;SDS011;8005;51.368;6.140;2023-04-25T04:50:23;20.42;;;6.03;;
15806;SDS011;8005;51.368;6.140;2023-04-25T04:52:15;19.60;;;6.32;;
15806;SDS011;8005;51.368;6.140;2023-04-25T04:53:59;19.60;;;6.30;;
15806;SDS011;8005;51.368;6.140;2023-04-25T04:55:54;17.67;;;6.43;;
15806;SDS011;8005;51.368;6.140;2023-04-25T04:57:46;17.38;;;6.13;;
15806;SDS011;8005;51.368;6.140;2023-04-25T04:59:18;27.35;;;7.90;;
15806;SDS011;8005;51.368;6.140;2023-04-25T05:01:13;16.25;;;5.63;;
15806;SDS011;8005;51.368;6.140;2023-04-25T05:03:13;25.42;;;6.38;;
15806;SDS011;8005;51.368;6.140;2023-04-25T05:05:06;19.38;;;6.10;;
15806;SDS011;8005;51.368;6.140;2023-04-25T05:06:58;17.33;;;6.82;;
15806;SDS011;8005;51.368;6.140;2023-04-25T05:08:51;14.85;;;5.28;;
15806;SDS011;8005;51.368;6.140;2023-04-25T05:10:41;17.70;;;4.93;;
15806;SDS011;8005;51.368;6.140;2023-04-25T05:12:27;15.63;;;5.50;;
15806;SDS011;8005;51.368;6.140;2023-04-25T05:14:17;24.15;;;6.15;;
15806;SDS011;8005;51.368;6.140;2023-04-25T05:16:12;17.00;;;5.70;;
15806;SDS011;8005;51.368;6.140;2023-04-25T05:18:07;16.95;;;6.45;;
15806;SDS011;8005;51.368;6.140;2023-04-25T05:20:03;23.08;;;5.57;;
15806;SDS011;8005;51.368;6.140;2023-04-25T05:21:57;16.85;;;5.38;;
15806;SDS011;8005;51.368;6.140;2023-04-25T05:23:38;17.63;;;5.18;;
15806;SDS011;8005;51.368;6.140;2023-04-25T05:25:36;16.83;;;5.80;;
15806;SDS011;8005;51.368;6.140;2023-04-25T05:27:25;19.83;;;5.78;;
15806;SDS011;8005;51.368;6.140;2023-04-25T05:29:23;14.75;;;5.60;;
15806;SDS011;8005;51.368;6.140;2023-04-25T05:31:06;19.42;;;6.07;;
15806;SDS011;8005;51.368;6.140;2023-04-25T05:32:52;22.65;;;5.68;;
15806;SDS011;8005;51.368;6.140;2023-04-25T05:34:24;17.42;;;5.90;;
15806;SDS011;8005;51.368;6.140;2023-04-25T05:36:01;16.38;;;5.93;;
15806;SDS011;8005;51.368;6.140;2023-04-25T05:37:33;18.80;;;5.57;;
15806;SDS011;8005;51.368;6.140;2023-04-25T05:39:13;20.27;;;5.53;;
15806;SDS011;8005;51.368;6.140;2023-04-25T05:41:04;17.88;;;6.15;;
15806;SDS011;8005;51.368;6.140;2023-04-25T05:42:43;20.55;;;5.47;;
15806;SDS011;8005;51.368;6.140;2023-04-25T05:44:35;16.63;;;5.63;;
15806;SDS011;8005;51.368;6.140;2023-04-25T05:46:25;12.98;;;4.80;;
15806;SDS011;8005;51.368;6.140;2023-04-25T05:48:13;19.98;;;5.40;;
15806;SDS011;8005;51.368;6.140;2023-04-25T05:50:01;14.30;;;4.82;;
15806;SDS011;8005;51.368;6.140;2023-04-25T05:51:53;19.08;;;5.15;;
15806;SDS011;8005;51.368;6.140;2023-04-25T05:53:42;14.55;;;4.70;;
15806;SDS011;8005;51.368;6.140;2023-04-25T05:55:16;17.42;;;5.28;;
15806;SDS011;8005;51.368;6.140;2023-04-25T05:56:48;24.85;;;5.95;;
15806;SDS011;8005;51.368;6.140;2023-04-25T05:58:21;19.05;;;5.53;;
15806;SDS011;8005;51.368;6.140;2023-04-25T05:59:53;18.08;;;6.25;;
15806;SDS011;8005;51.368;6.140;2023-04-25T06:01:29;17.75;;;5.43;;
15806;SDS011;8005;51.368;6.140;2023-04-25T06:03:01;23.40;;;4.77;;
15806;SDS011;8005;51.368;6.140;2023-04-25T06:04:33;17.45;;;6.45;;
15806;SDS011;8005;51.368;6.140;2023-04-25T06:06:06;25.13;;;6.28;;
15806;SDS011;8005;51.368;6.140;2023-04-25T06:07:38;16.00;;;5.90;;
15806;SDS011;8005;51.368;6.140;2023-04-25T06:09:10;23.17;;;5.30;;
15806;SDS011;8005;51.368;6.140;2023-04-25T06:10:44;24.70;;;5.22;;
15806;SDS011;8005;51.368;6.140;2023-04-25T06:13:50;16.35;;;5.20;;
15806;SDS011;8005;51.368;6.140;2023-04-25T06:15:23;17.60;;;5.93;;
15806;SDS011;8005;51.368;6.140;2023-04-25T06:16:59;18.55;;;5.45;;
15806;SDS011;8005;51.368;6.140;2023-04-25T06:18:37;21.30;;;5.25;;
15806;SDS011;8005;51.368;6.140;2023-04-25T06:20:09;14.63;;;4.30;;
15806;SDS011;8005;51.368;6.140;2023-04-25T06:21:44;18.45;;;4.70;;
15806;SDS011;8005;51.368;6.140;2023-04-25T06:23:16;14.40;;;4.78;;
15806;SDS011;8005;51.368;6.140;2023-04-25T06:25:09;20.15;;;4.88;;
15806;SDS011;8005;51.368;6.140;2023-04-25T06:26:42;12.05;;;4.80;;
15806;SDS011;8005;51.368;6.140;2023-04-25T06:28:14;15.23;;;4.72;;
15806;SDS011;8005;51.368;6.140;2023-04-25T06:29:47;25.73;;;5.25;;
15806;SDS011;8005;51.368;6.140;2023-04-25T06:31:19;18.15;;;4.22;;
15806;SDS011;8005;51.368;6.140;2023-04-25T06:32:52;19.95;;;4.43;;
15806;SDS011;8005;51.368;6.140;2023-04-25T06:34:25;16.73;;;4.40;;
15806;SDS011;8005;51.368;6.140;2023-04-25T06:35:57;19.42;;;5.18;;
15806;SDS011;8005;51.368;6.140;2023-04-25T06:37:31;19.02;;;3.88;;
15806;SDS011;8005;51.368;6.140;2023-04-25T06:39:03;11.20;;;5.17;;
15806;SDS011;8005;51.368;6.140;2023-04-25T06:40:36;15.43;;;4.45;;
15806;SDS011;8005;51.368;6.140;2023-04-25T06:42:09;17.35;;;4.25;;
15806;SDS011;8005;51.368;6.140;2023-04-25T06:43:53;17.80;;;3.58;;
15806;SDS011;8005;51.368;6.140;2023-04-25T06:45:33;13.82;;;3.75;;
15806;SDS011;8005;51.368;6.140;2023-04-25T06:47:05;21.95;;;4.28;;
15806;SDS011;8005;51.368;6.140;2023-04-25T06:48:38;18.05;;;4.22;;
15806;SDS011;8005;51.368;6.140;2023-04-25T06:50:10;13.18;;;3.60;;
15806;SDS011;8005;51.368;6.140;2023-04-25T06:51:43;15.27;;;3.90;;
15806;SDS011;8005;51.368;6.140;2023-04-25T06:53:15;21.90;;;4.65;;
15806;SDS011;8005;51.368;6.140;2023-04-25T06:54:50;23.52;;;3.85;;
15806;SDS011;8005;51.368;6.140;2023-04-25T06:56:42;18.60;;;4.15;;
15806;SDS011;8005;51.368;6.140;2023-04-25T06:58:18;12.20;;;3.45;;
15806;SDS011;8005;51.368;6.140;2023-04-25T07:00:09;13.27;;;3.05;;
15806;SDS011;8005;51.368;6.140;2023-04-25T07:01:43;13.43;;;3.17;;
15806;SDS011;8005;51.368;6.140;2023-04-25T07:03:22;12.77;;;2.88;;
15806;SDS011;8005;51.368;6.140;2023-04-25T07:04:57;14.50;;;3.50;;
15806;SDS011;8005;51.368;6.140;2023-04-25T07:06:31;19.63;;;3.83;;
15806;SDS011;8005;51.368;6.140;2023-04-25T07:08:04;15.35;;;3.72;;
15806;SDS011;8005;51.368;6.140;2023-04-25T07:09:36;11.13;;;3.45;;
15806;SDS011;8005;51.368;6.140;2023-04-25T07:11:08;14.40;;;2.75;;
15806;SDS011;8005;51.368;6.140;2023-04-25T07:12:41;12.68;;;3.10;;
15806;SDS011;8005;51.368;6.140;2023-04-25T07:14:13;13.40;;;4.20;;
15806;SDS011;8005;51.368;6.140;2023-04-25T07:15:45;28.02;;;5.65;;
15806;SDS011;8005;51.368;6.140;2023-04-25T07:17:20;15.85;;;3.00;;
15806;SDS011;8005;51.368;6.140;2023-04-25T07:18:53;9.15;;;2.85;;
15806;SDS011;8005;51.368;6.140;2023-04-25T07:20:25;11.73;;;3.65;;
15806;SDS011;8005;51.368;6.140;2023-04-25T07:22:00;13.40;;;3.20;;
15806;SDS011;8005;51.368;6.140;2023-04-25T07:25:11;16.20;;;3.25;;
15806;SDS011;8005;51.368;6.140;2023-04-25T07:26:44;14.13;;;2.97;;
15806;SDS011;8005;51.368;6.140;2023-04-25T07:28:26;14.20;;;3.37;;
15806;SDS011;8005;51.368;6.140;2023-04-25T07:29:58;7.18;;;2.70;;
15806;SDS011;8005;51.368;6.140;2023-04-25T07:31:30;14.23;;;3.15;;
15806;SDS011;8005;51.368;6.140;2023-04-25T07:33:02;16.08;;;2.85;;
15806;SDS011;8005;51.368;6.140;2023-04-25T07:34:35;18.38;;;3.78;;
15806;SDS011;8005;51.368;6.140;2023-04-25T07:36:09;13.20;;;3.10;;
15806;SDS011;8005;51.368;6.140;2023-04-25T07:37:41;14.77;;;2.90;;
15806;SDS011;8005;51.368;6.140;2023-04-25T07:39:19;11.50;;;2.92;;
15806;SDS011;8005;51.368;6.140;2023-04-25T07:40:51;13.50;;;2.80;;
15806;SDS011;8005;51.368;6.140;2023-04-25T07:42:24;14.10;;;3.35;;
15806;SDS011;8005;51.368;6.140;2023-04-25T07:43:57;10.48;;;2.55;;
15806;SDS011;8005;51.368;6.140;2023-04-25T07:45:29;18.33;;;2.65;;
15806;SDS011;8005;51.368;6.140;2023-04-25T07:47:02;13.32;;;3.88;;
15806;SDS011;8005;51.368;6.140;2023-04-25T07:48:36;13.60;;;3.38;;
15806;SDS011;8005;51.368;6.140;2023-04-25T07:50:09;15.10;;;3.20;;
15806;SDS011;8005;51.368;6.140;2023-04-25T07:51:42;10.52;;;3.58;;
15806;SDS011;8005;51.368;6.140;2023-04-25T07:53:20;16.10;;;3.13;;
15806;SDS011;8005;51.368;6.140;2023-04-25T07:55:00;12.65;;;2.72;;
15806;SDS011;8005;51.368;6.140;2023-04-25T07:56:42;9.75;;;2.15;;
15806;SDS011;8005;51.368;6.140;2023-04-25T07:58:24;10.65;;;2.65;;
15806;SDS011;8005;51.368;6.140;2023-04-25T08:00:03;9.98;;;2.42;;
15806;SDS011;8005;51.368;6.140;2023-04-25T08:01:43;12.85;;;2.63;;
15806;SDS011;8005;51.368;6.140;2023-04-25T08:03:16;16.33;;;2.80;;
15806;SDS011;8005;51.368;6.140;2023-04-25T08:04:49;14.50;;;3.53;;
15806;SDS011;8005;51.368;6.140;2023-04-25T08:06:22;9.43;;;2.20;;
15806;SDS011;8005;51.368;6.140;2023-04-25T08:09:38;8.85;;;2.70;;
15806;SDS011;8005;51.368;6.140;2023-04-25T08:11:20;10.68;;;2.90;;
15806;SDS011;8005;51.368;6.140;2023-04-25T08:12:53;11.00;;;2.97;;
15806;SDS011;8005;51.368;6.140;2023-04-25T08:14:27;12.07;;;2.70;;
15806;SDS011;8005;51.368;6.140;2023-04-25T08:16:02;8.98;;;3.47;;
15806;SDS011;8005;51.368;6.140;2023-04-25T08:17:35;10.60;;;2.70;;
15806;SDS011;8005;51.368;6.140;2023-04-25T08:19:07;10.77;;;2.33;;
15806;SDS011;8005;51.368;6.140;2023-04-25T08:20:39;15.70;;;2.25;;
15806;SDS011;8005;51.368;6.140;2023-04-25T08:22:21;10.65;;;1.88;;
15806;SDS011;8005;51.368;6.140;2023-04-25T08:23:58;7.38;;;2.20;;
15806;SDS011;8005;51.368;6.140;2023-04-25T08:25:33;12.20;;;2.60;;
15806;SDS011;8005;51.368;6.140;2023-04-25T08:27:05;11.63;;;2.13;;
15806;SDS011;8005;51.368;6.140;2023-04-25T08:28:39;9.30;;;2.20;;
15806;SDS011;8005;51.368;6.140;2023-04-25T08:30:11;7.13;;;2.15;;
15806;SDS011;8005;51.368;6.140;2023-04-25T08:31:45;11.38;;;2.30;;
15806;SDS011;8005;51.368;6.140;2023-04-25T08:33:22;9.18;;;2.33;;
15806;SDS011;8005;51.368;6.140;2023-04-25T08:35:09;13.13;;;2.30;;
15806;SDS011;8005;51.368;6.140;2023-04-25T08:36:41;15.50;;;4.20;;
15806;SDS011;8005;51.368;6.140;2023-04-25T08:38:40;8.93;;;2.78;;
15806;SDS011;8005;51.368;6.140;2023-04-25T08:40:15;7.97;;;1.80;;
15806;SDS011;8005;51.368;6.140;2023-04-25T08:41:50;8.68;;;2.45;;
15806;SDS011;8005;51.368;6.140;2023-04-25T08:43:24;6.50;;;1.95;;
15806;SDS011;8005;51.368;6.140;2023-04-25T08:44:56;11.93;;;2.00;;
15806;SDS011;8005;51.368;6.140;2023-04-25T08:46:34;8.50;;;1.83;;
15806;SDS011;8005;51.368;6.140;2023-04-25T08:48:27;13.32;;;2.97;;
15806;SDS011;8005;51.368;6.140;2023-04-25T08:50:02;9.18;;;1.88;;
15806;SDS011;8005;51.368;6.140;2023-04-25T08:51:35;12.13;;;2.47;;
15806;SDS011;8005;51.368;6.140;2023-04-25T08:53:09;7.72;;;1.65;;
15806;SDS011;8005;51.368;6.140;2023-04-25T08:54:42;7.72;;;1.83;;
15806;SDS011;8005;51.368;6.140;2023-04-25T08:56:16;17.15;;;1.95;;
15806;SDS011;8005;51.368;6.140;2023-04-25T08:57:54;8.80;;;1.30;;
15806;SDS011;8005;51.368;6.140;2023-04-25T08:59:28;13.93;;;2.58;;
15806;SDS011;8005;51.368;6.140;2023-04-25T09:01:02;10.00;;;1.67;;
15806;SDS011;8005;51.368;6.140;2023-04-25T09:05:14;7.95;;;2.35;;
15806;SDS011;8005;51.368;6.140;2023-04-25T09:06:48;10.95;;;2.50;;
15806;SDS011;8005;51.368;6.140;2023-04-25T09:08:20;14.07;;;2.50;;
15806;SDS011;8005;51.368;6.140;2023-04-25T09:09:52;6.68;;;1.67;;
15806;SDS011;8005;51.368;6.140;2023-04-25T09:11:26;10.13;;;2.03;;
15806;SDS011;8005;51.368;6.140;2023-04-25T09:14:34;10.48;;;1.88;;
15806;SDS011;8005;51.368;6.140;2023-04-25T09:16:10;6.05;;;2.03;;
15806;SDS011;8005;51.368;6.140;2023-04-25T09:17:57;8.57;;;2.20;;
15806;SDS011;8005;51.368;6.140;2023-04-25T09:19:40;6.60;;;1.70;;
15806;SDS011;8005;51.368;6.140;2023-04-25T09:21:31;11.90;;;2.13;;
15806;SDS011;8005;51.368;6.140;2023-04-25T09:23:16;9.07;;;2.17;;
15806;SDS011;8005;51.368;6.140;2023-04-25T09:24:48;8.07;;;1.75;;
15806;SDS011;8005;51.368;6.140;2023-04-25T09:26:25;9.02;;;2.65;;
15806;SDS011;8005;51.368;6.140;2023-04-25T09:27:57;9.23;;;2.63;;
15806;SDS011;8005;51.368;6.140;2023-04-25T09:29:36;7.47;;;2.10;;
15806;SDS011;8005;51.368;6.140;2023-04-25T09:31:10;7.35;;;1.70;;
15806;SDS011;8005;51.368;6.140;2023-04-25T09:32:50;5.72;;;1.42;;
15806;SDS011;8005;51.368;6.140;2023-04-25T09:34:22;11.10;;;1.83;;
15806;SDS011;8005;51.368;6.140;2023-04-25T09:36:04;12.93;;;2.30;;
15806;SDS011;8005;51.368;6.140;2023-04-25T09:38:07;5.87;;;1.77;;
15806;SDS011;8005;51.368;6.140;2023-04-25T09:39:58;11.35;;;1.70;;
15806;SDS011;8005;51.368;6.140;2023-04-25T09:41:37;10.10;;;1.80;;
15806;SDS011;8005;51.368;6.140;2023-04-25T09:43:10;12.70;;;2.08;;
15806;SDS011;8005;51.368;6.140;2023-04-25T09:44:56;10.32;;;1.50;;
15806;SDS011;8005;51.368;6.140;2023-04-25T09:46:32;6.40;;;1.77;;
15806;SDS011;8005;51.368;6.140;2023-04-25T09:48:06;10.45;;;2.00;;
15806;SDS011;8005;51.368;6.140;2023-04-25T09:49:41;11.57;;;1.48;;
15806;SDS011;8005;51.368;6.140;2023-04-25T09:51:15;8.05;;;1.90;;
15806;SDS011;8005;51.368;6.140;2023-04-25T09:53:03;11.30;;;2.03;;
15806;SDS011;8005;51.368;6.140;2023-04-25T09:55:06;6.90;;;1.70;;